sensor_id;sensor_type;location;lat;lon;timestamp;pressure;altitude;pressure_sealevel;temperature;humidity
49915;BME280;35806;47.958;13.158;2023-06-14T00:01:28;94251.94;;;15.96;34.40
49915;BME280;35806;47.958;13.158;2023-06-14T00:03:55;94251.48;;;15.69;34.55
49915;BME280;35806;47.958;13.158;2023-06-14T00:06:22;94250.76;;;15.41;36.14
49915;BME280;35806;47.958;13.158;2023-06-14T00:08:49;94247.10;;;15.28;35.18
49915;BME280;35806;47.958;13.158;2023-06-14T00:11:17;94248.14;;;15.62;34.98
49915;BME280;35806;47.958;13.158;2023-06-14T00:13:44;94249.49;;;15.46;34.86
49915;BME280;35806;47.958;13.158;2023-06-14T00:16:14;94254.04;;;15.96;35.28
49915;BME280;35806;47.958;13.158;2023-06-14T00:18:42;94250.84;;;15.28;35.28
49915;BME280;35806;47.958;13.158;2023-06-14T00:21:09;94251.51;;;15.25;35.18
49915;BME280;35806;47.958;13.158;2023-06-14T00:23:36;94249.16;;;15.13;35.81
49915;BME280;35806;47.958;13.158;2023-06-14T00:26:04;94250.21;;;15.45;35.75
49915;BME280;35806;47.958;13.158;2023-06-14T00:28:32;94244.82;;;15.00;37.40
49915;BME280;35806;47.958;13.158;2023-06-14T00:31:00;94241.44;;;14.87;38.94
49915;BME280;35806;47.958;13.158;2023-06-14T00:33:27;94240.95;;;14.95;39.09
49915;BME280;35806;47.958;13.158;2023-06-14T00:35:54;94242.92;;;14.60;38.45
49915;BME280;35806;47.958;13.158;2023-06-14T00:38:21;94244.78;;;15.00;36.81
49915;BME280;35806;47.958;13.158;2023-06-14T00:40:49;94242.14;;;15.24;37.58
49915;BME280;35806;47.958;13.158;2023-06-14T00:43:16;94245.45;;;15.80;38.32
49915;BME280;35806;47.958;13.158;2023-06-14T00:45:44;94243.84;;;15.69;38.46
49915;BME280;35806;47.958;13.158;2023-06-14T00:48:12;94245.54;;;15.69;38.00
49915;BME280;35806;47.958;13.158;2023-06-14T00:50:41;94243.09;;;15.82;38.42
49915;BME280;35806;47.958;13.158;2023-06-14T00:53:08;94238.84;;;15.34;37.81
49915;BME280;35806;47.958;13.158;2023-06-14T00:55:36;94236.39;;;15.68;38.04
49915;BME280;35806;47.958;13.158;2023-06-14T00:58:04;94240.12;;;15.99;38.50
49915;BME280;35806;47.958;13.158;2023-06-14T01:15:30;94234.70;;;15.08;38.95
49915;BME280;35806;47.958;13.158;2023-06-14T01:17:58;94233.48;;;15.00;39.09
49915;BME280;35806;47.958;13.158;2023-06-14T01:20:29;94231.00;;;15.02;39.56
49915;BME280;35806;47.958;13.158;2023-06-14T01:22:56;94232.80;;;14.79;40.28
49915;BME280;35806;47.958;13.158;2023-06-14T01:25:24;94235.10;;;14.79;39.99
49915;BME280;35806;47.958;13.158;2023-06-14T01:27:55;94236.47;;;14.35;40.98
49915;BME280;35806;47.958;13.158;2023-06-14T01:30:23;94238.36;;;14.30;41.04
49915;BME280;35806;47.958;13.158;2023-06-14T01:32:51;94237.51;;;14.06;41.93
49915;BME280;35806;47.958;13.158;2023-06-14T01:35:19;94239.55;;;14.19;41.27
49915;BME280;35806;47.958;13.158;2023-06-14T01:37:47;94240.78;;;14.24;41.42
49915;BME280;35806;47.958;13.158;2023-06-14T01:40:16;94236.95;;;14.27;41.10
49915;BME280;35806;47.958;13.158;2023-06-14T01:42:46;94237.06;;;13.98;42.28
49915;BME280;35806;47.958;13.158;2023-06-14T01:45:15;94234.66;;;13.87;42.38
49915;BME280;35806;47.958;13.158;2023-06-14T01:47:44;94232.07;;;14.22;41.00
49915;BME280;35806;47.958;13.158;2023-06-14T01:50:12;94231.25;;;14.30;40.96
49915;BME280;35806;47.958;13.158;2023-06-14T01:52:40;94233.16;;;13.84;41.37
49915;BME280;35806;47.958;13.158;2023-06-14T01:55:08;94234.13;;;13.60;42.07
49915;BME280;35806;47.958;13.158;2023-06-14T01:57:35;94231.63;;;13.58;42.77
49915;BME280;35806;47.958;13.158;2023-06-14T02:00:04;94230.02;;;13.73;42.60
49915;BME280;35806;47.958;13.158;2023-06-14T02:02:32;94229.61;;;13.64;42.24
49915;BME280;35806;47.958;13.158;2023-06-14T02:04:58;94227.70;;;13.34;42.73
49915;BME280;35806;47.958;13.158;2023-06-14T02:07:26;94229.20;;;13.93;42.50
49915;BME280;35806;47.958;13.158;2023-06-14T02:09:53;94228.90;;;14.39;41.84
49915;BME280;35806;47.958;13.158;2023-06-14T02:12:21;94230.74;;;13.73;41.59
49915;BME280;35806;47.958;13.158;2023-06-14T02:14:49;94230.43;;;13.75;42.37
49915;BME280;35806;47.958;13.158;2023-06-14T02:17:16;94229.46;;;13.81;42.62
49915;BME280;35806;47.958;13.158;2023-06-14T02:19:44;94233.04;;;14.17;41.68
49915;BME280;35806;47.958;13.158;2023-06-14T02:22:11;94233.62;;;14.04;42.01
49915;BME280;35806;47.958;13.158;2023-06-14T02:24:38;94231.58;;;13.79;41.35
49915;BME280;35806;47.958;13.158;2023-06-14T02:27:10;94230.86;;;13.85;41.03
49915;BME280;35806;47.958;13.158;2023-06-14T02:29:37;94236.75;;;13.94;40.69
49915;BME280;35806;47.958;13.158;2023-06-14T02:32:06;94236.37;;;14.11;41.20
49915;BME280;35806;47.958;13.158;2023-06-14T02:34:33;94237.86;;;13.94;41.34
49915;BME280;35806;47.958;13.158;2023-06-14T02:37:00;94233.41;;;14.50;41.16
49915;BME280;35806;47.958;13.158;2023-06-14T02:39:28;94236.78;;;14.20;41.50
49915;BME280;35806;47.958;13.158;2023-06-14T02:41:55;94236.90;;;14.03;41.68
49915;BME280;35806;47.958;13.158;2023-06-14T02:44:24;94238.38;;;13.54;41.84
49915;BME280;35806;47.958;13.158;2023-06-14T02:46:52;94236.53;;;13.77;42.01
49915;BME280;35806;47.958;13.158;2023-06-14T02:49:19;94239.94;;;13.98;41.13
49915;BME280;35806;47.958;13.158;2023-06-14T02:51:47;94241.73;;;13.82;41.44
49915;BME280;35806;47.958;13.158;2023-06-14T02:54:14;94246.75;;;13.54;42.24
49915;BME280;35806;47.958;13.158;2023-06-14T02:56:43;94249.18;;;13.86;41.90
49915;BME280;35806;47.958;13.158;2023-06-14T02:59:10;94251.73;;;13.64;41.80
49915;BME280;35806;47.958;13.158;2023-06-14T03:01:38;94253.82;;;13.32;42.78
49915;BME280;35806;47.958;13.158;2023-06-14T03:04:05;94255.56;;;13.14;43.42
49915;BME280;35806;47.958;13.158;2023-06-14T03:06:32;94255.84;;;13.64;42.22
49915;BME280;35806;47.958;13.158;2023-06-14T03:09:00;94258.07;;;13.41;40.11
49915;BME280;35806;47.958;13.158;2023-06-14T03:11:27;94257.33;;;13.34;41.65
49915;BME280;35806;47.958;13.158;2023-06-14T03:13:55;94256.99;;;13.39;38.92
49915;BME280;35806;47.958;13.158;2023-06-14T03:16:22;94252.10;;;13.63;38.26
49915;BME280;35806;47.958;13.158;2023-06-14T03:18:51;94252.74;;;13.45;37.99
49915;BME280;35806;47.958;13.158;2023-06-14T03:21:18;94252.56;;;13.81;38.05
49915;BME280;35806;47.958;13.158;2023-06-14T03:23:51;94254.28;;;13.95;37.37
49915;BME280;35806;47.958;13.158;2023-06-14T03:26:18;94253.53;;;13.74;38.12
49915;BME280;35806;47.958;13.158;2023-06-14T03:28:46;94257.74;;;13.81;38.17
49915;BME280;35806;47.958;13.158;2023-06-14T03:31:14;94256.61;;;13.65;38.49
49915;BME280;35806;47.958;13.158;2023-06-14T03:33:43;94260.55;;;13.51;38.41
49915;BME280;35806;47.958;13.158;2023-06-14T03:36:10;94259.21;;;13.57;38.52
49915;BME280;35806;47.958;13.158;2023-06-14T03:38:37;94261.60;;;13.06;39.04
49915;BME280;35806;47.958;13.158;2023-06-14T03:41:05;94266.33;;;12.95;39.14
49915;BME280;35806;47.958;13.158;2023-06-14T03:43:34;94263.15;;;13.50;40.40
49915;BME280;35806;47.958;13.158;2023-06-14T03:46:01;94267.61;;;13.44;39.39
49915;BME280;35806;47.958;13.158;2023-06-14T03:48:28;94274.20;;;13.82;39.40
49915;BME280;35806;47.958;13.158;2023-06-14T03:50:56;94274.63;;;13.53;39.29
49915;BME280;35806;47.958;13.158;2023-06-14T03:53:23;94275.63;;;14.50;40.29
49915;BME280;35806;47.958;13.158;2023-06-14T03:55:51;94277.16;;;14.36;40.32
49915;BME280;35806;47.958;13.158;2023-06-14T03:58:19;94278.74;;;14.34;39.81
49915;BME280;35806;47.958;13.158;2023-06-14T04:00:46;94283.58;;;13.93;40.10
49915;BME280;35806;47.958;13.158;2023-06-14T04:03:13;94285.94;;;13.91;39.28
49915;BME280;35806;47.958;13.158;2023-06-14T04:05:40;94287.63;;;13.47;39.53
49915;BME280;35806;47.958;13.158;2023-06-14T04:08:08;94289.87;;;13.36;39.33
49915;BME280;35806;47.958;13.158;2023-06-14T04:10:35;94289.20;;;13.72;40.09
49915;BME280;35806;47.958;13.158;2023-06-14T04:13:02;94293.25;;;13.73;39.66
49915;BME280;35806;47.958;13.158;2023-06-14T04:15:29;94294.38;;;13.30;41.08
49915;BME280;35806;47.958;13.158;2023-06-14T04:17:57;94293.77;;;13.31;40.35
49915;BME280;35806;47.958;13.158;2023-06-14T04:20:25;94298.37;;;12.32;42.14
49915;BME280;35806;47.958;13.158;2023-06-14T04:22:52;94299.76;;;12.80;41.85
49915;BME280;35806;47.958;13.158;2023-06-14T04:25:19;94304.81;;;12.44;42.33
49915;BME280;35806;47.958;13.158;2023-06-14T04:27:46;94300.32;;;13.13;42.24
49915;BME280;35806;47.958;13.158;2023-06-14T04:30:14;94302.24;;;13.31;42.62
49915;BME280;35806;47.958;13.158;2023-06-14T04:32:41;94302.70;;;13.78;41.42
49915;BME280;35806;47.958;13.158;2023-06-14T04:35:09;94304.95;;;13.91;40.73
49915;BME280;35806;47.958;13.158;2023-06-14T04:37:36;94306.97;;;14.67;40.32
49915;BME280;35806;47.958;13.158;2023-06-14T04:40:04;94311.46;;;14.00;41.00
49915;BME280;35806;47.958;13.158;2023-06-14T04:42:32;94310.80;;;13.57;41.34
49915;BME280;35806;47.958;13.158;2023-06-14T04:44:59;94315.91;;;13.20;41.95
49915;BME280;35806;47.958;13.158;2023-06-14T04:47:27;94315.52;;;14.05;40.73
49915;BME280;35806;47.958;13.158;2023-06-14T04:49:55;94314.40;;;13.69;41.38
49915;BME280;35806;47.958;13.158;2023-06-14T04:52:22;94316.49;;;13.99;41.05
49915;BME280;35806;47.958;13.158;2023-06-14T04:54:50;94319.40;;;13.50;42.77
49915;BME280;35806;47.958;13.158;2023-06-14T04:57:17;94317.05;;;13.18;42.98
49915;BME280;35806;47.958;13.158;2023-06-14T04:59:44;94319.57;;;14.00;41.62
49915;BME280;35806;47.958;13.158;2023-06-14T05:02:12;94314.36;;;14.86;41.17
49915;BME280;35806;47.958;13.158;2023-06-14T05:04:39;94317.61;;;13.94;42.09
49915;BME280;35806;47.958;13.158;2023-06-14T05:07:07;94315.93;;;14.30;41.45
49915;BME280;35806;47.958;13.158;2023-06-14T05:09:34;94322.48;;;14.39;42.08
49915;BME280;35806;47.958;13.158;2023-06-14T05:12:01;94322.25;;;13.71;42.71
49915;BME280;35806;47.958;13.158;2023-06-14T05:14:29;94323.22;;;14.28;43.07
49915;BME280;35806;47.958;13.158;2023-06-14T05:16:56;94321.12;;;13.80;43.42
49915;BME280;35806;47.958;13.158;2023-06-14T05:19:23;94326.14;;;13.08;43.99
49915;BME280;35806;47.958;13.158;2023-06-14T05:21:51;94327.83;;;13.35;44.25
49915;BME280;35806;47.958;13.158;2023-06-14T05:24:19;94323.12;;;15.10;42.24
49915;BME280;35806;47.958;13.158;2023-06-14T05:26:47;94325.61;;;14.15;43.26
49915;BME280;35806;47.958;13.158;2023-06-14T05:29:14;94325.59;;;14.38;42.73
49915;BME280;35806;47.958;13.158;2023-06-14T05:31:41;94324.87;;;15.38;41.49
49915;BME280;35806;47.958;13.158;2023-06-14T05:34:09;94322.55;;;15.25;40.41
49915;BME280;35806;47.958;13.158;2023-06-14T05:36:36;94324.64;;;15.54;39.83
49915;BME280;35806;47.958;13.158;2023-06-14T05:39:05;94326.84;;;15.92;40.12
49915;BME280;35806;47.958;13.158;2023-06-14T05:41:32;94328.28;;;15.18;40.56
49915;BME280;35806;47.958;13.158;2023-06-14T05:43:59;94331.00;;;15.98;39.94
49915;BME280;35806;47.958;13.158;2023-06-14T05:46:34;94332.49;;;15.47;40.30
49915;BME280;35806;47.958;13.158;2023-06-14T05:49:01;94333.62;;;16.45;38.56
49915;BME280;35806;47.958;13.158;2023-06-14T05:51:32;94334.93;;;16.01;39.03
49915;BME280;35806;47.958;13.158;2023-06-14T05:53:59;94335.93;;;15.84;39.06
49915;BME280;35806;47.958;13.158;2023-06-14T05:56:27;94335.96;;;16.34;38.69
49915;BME280;35806;47.958;13.158;2023-06-14T05:58:54;94341.92;;;16.95;38.24
49915;BME280;35806;47.958;13.158;2023-06-14T06:01:22;94341.50;;;16.83;37.87
49915;BME280;35806;47.958;13.158;2023-06-14T06:03:50;94346.63;;;17.10;38.12
49915;BME280;35806;47.958;13.158;2023-06-14T06:06:22;94348.76;;;17.37;37.30
49915;BME280;35806;47.958;13.158;2023-06-14T06:08:51;94351.41;;;17.25;37.44
49915;BME280;35806;47.958;13.158;2023-06-14T06:11:20;94352.71;;;17.30;37.15
49915;BME280;35806;47.958;13.158;2023-06-14T06:13:48;94354.75;;;17.36;36.93
49915;BME280;35806;47.958;13.158;2023-06-14T06:16:16;94357.47;;;17.49;37.21
49915;BME280;35806;47.958;13.158;2023-06-14T06:18:45;94362.22;;;17.03;37.37
49915;BME280;35806;47.958;13.158;2023-06-14T06:21:13;94365.30;;;16.88;38.10
49915;BME280;35806;47.958;13.158;2023-06-14T06:23:41;94361.46;;;16.54;38.63
49915;BME280;35806;47.958;13.158;2023-06-14T06:26:15;94361.25;;;16.71;37.61
49915;BME280;35806;47.958;13.158;2023-06-14T06:28:43;94367.42;;;16.96;37.91
49915;BME280;35806;47.958;13.158;2023-06-14T06:31:11;94371.81;;;17.48;38.31
49915;BME280;35806;47.958;13.158;2023-06-14T06:33:39;94373.19;;;17.57;38.04
49915;BME280;35806;47.958;13.158;2023-06-14T06:36:27;94380.63;;;17.56;38.57
49915;BME280;35806;47.958;13.158;2023-06-14T06:38:57;94378.85;;;17.56;37.84
49915;BME280;35806;47.958;13.158;2023-06-14T06:41:25;94381.10;;;17.56;37.04
49915;BME280;35806;47.958;13.158;2023-06-14T06:43:55;94380.46;;;17.78;37.58
49915;BME280;35806;47.958;13.158;2023-06-14T06:46:23;94382.98;;;17.66;38.02
49915;BME280;35806;47.958;13.158;2023-06-14T06:48:50;94381.98;;;17.68;37.90
49915;BME280;35806;47.958;13.158;2023-06-14T06:51:18;94385.25;;;17.55;38.07
49915;BME280;35806;47.958;13.158;2023-06-14T06:53:52;94385.34;;;17.58;38.39
49915;BME280;35806;47.958;13.158;2023-06-14T06:56:20;94378.65;;;18.05;36.72
49915;BME280;35806;47.958;13.158;2023-06-14T06:58:48;94382.22;;;18.20;36.74
49915;BME280;35806;47.958;13.158;2023-06-14T07:01:15;94384.17;;;17.22;37.38
49915;BME280;35806;47.958;13.158;2023-06-14T07:03:43;94386.87;;;17.59;37.94
49915;BME280;35806;47.958;13.158;2023-06-14T07:06:10;94383.62;;;17.93;37.57
49915;BME280;35806;47.958;13.158;2023-06-14T07:08:38;94389.32;;;17.31;38.45
49915;BME280;35806;47.958;13.158;2023-06-14T07:11:06;94389.15;;;17.51;37.98
49915;BME280;35806;47.958;13.158;2023-06-14T07:13:34;94391.62;;;17.81;37.48
49915;BME280;35806;47.958;13.158;2023-06-14T07:16:01;94388.63;;;18.19;37.03
49915;BME280;35806;47.958;13.158;2023-06-14T07:18:29;94389.87;;;17.68;36.92
49915;BME280;35806;47.958;13.158;2023-06-14T07:20:57;94392.53;;;17.65;38.44
49915;BME280;35806;47.958;13.158;2023-06-14T07:23:24;94393.78;;;18.09;37.79
49915;BME280;35806;47.958;13.158;2023-06-14T07:25:52;94396.81;;;18.65;35.56
49915;BME280;35806;47.958;13.158;2023-06-14T07:28:19;94400.36;;;18.83;37.16
49915;BME280;35806;47.958;13.158;2023-06-14T07:30:46;94402.33;;;18.99;35.64
49915;BME280;35806;47.958;13.158;2023-06-14T07:33:14;94400.72;;;19.08;35.14
49915;BME280;35806;47.958;13.158;2023-06-14T07:35:42;94406.51;;;19.31;35.96
49915;BME280;35806;47.958;13.158;2023-06-14T07:38:09;94410.99;;;19.47;35.69
49915;BME280;35806;47.958;13.158;2023-06-14T07:40:37;94414.35;;;19.46;35.28
49915;BME280;35806;47.958;13.158;2023-06-14T07:43:04;94416.87;;;18.87;35.97
49915;BME280;35806;47.958;13.158;2023-06-14T07:45:42;94415.88;;;19.13;35.93
49915;BME280;35806;47.958;13.158;2023-06-14T07:48:10;94416.95;;;19.40;34.79
49915;BME280;35806;47.958;13.158;2023-06-14T07:50:37;94416.61;;;19.47;34.08
49915;BME280;35806;47.958;13.158;2023-06-14T07:53:05;94420.07;;;19.31;35.34
49915;BME280;35806;47.958;13.158;2023-06-14T07:55:33;94419.67;;;19.00;35.24
49915;BME280;35806;47.958;13.158;2023-06-14T07:58:00;94423.02;;;19.54;34.41
49915;BME280;35806;47.958;13.158;2023-06-14T08:00:28;94425.33;;;19.05;35.59
49915;BME280;35806;47.958;13.158;2023-06-14T08:02:56;94425.46;;;18.55;36.16
49915;BME280;35806;47.958;13.158;2023-06-14T08:05:24;94423.01;;;18.47;36.69
49915;BME280;35806;47.958;13.158;2023-06-14T08:07:53;94422.78;;;18.62;35.77
49915;BME280;35806;47.958;13.158;2023-06-14T08:10:20;94430.28;;;18.55;36.84
49915;BME280;35806;47.958;13.158;2023-06-14T08:12:48;94431.63;;;18.95;36.87
49915;BME280;35806;47.958;13.158;2023-06-14T08:15:16;94424.81;;;19.46;34.63
49915;BME280;35806;47.958;13.158;2023-06-14T08:17:44;94424.02;;;20.42;35.23
49915;BME280;35806;47.958;13.158;2023-06-14T08:20:13;94419.69;;;20.42;33.69
49915;BME280;35806;47.958;13.158;2023-06-14T08:22:40;94416.81;;;20.07;34.00
49915;BME280;35806;47.958;13.158;2023-06-14T08:25:08;94421.63;;;20.09;33.22
49915;BME280;35806;47.958;13.158;2023-06-14T08:27:36;94417.28;;;20.27;33.52
49915;BME280;35806;47.958;13.158;2023-06-14T08:30:10;94424.54;;;20.97;33.15
49915;BME280;35806;47.958;13.158;2023-06-14T08:32:39;94427.70;;;19.37;34.34
49915;BME280;35806;47.958;13.158;2023-06-14T08:35:06;94425.37;;;19.78;35.28
49915;BME280;35806;47.958;13.158;2023-06-14T08:37:38;94422.39;;;20.51;33.93
49915;BME280;35806;47.958;13.158;2023-06-14T08:40:24;94422.53;;;20.57;33.46
49915;BME280;35806;47.958;13.158;2023-06-14T08:42:54;94426.67;;;21.13;32.47
49915;BME280;35806;47.958;13.158;2023-06-14T08:45:23;94431.59;;;20.03;32.97
49915;BME280;35806;47.958;13.158;2023-06-14T08:47:52;94431.62;;;20.17;34.05
49915;BME280;35806;47.958;13.158;2023-06-14T08:50:21;94432.28;;;19.85;34.17
49915;BME280;35806;47.958;13.158;2023-06-14T08:52:53;94436.01;;;19.62;34.95
49915;BME280;35806;47.958;13.158;2023-06-14T08:55:24;94433.80;;;19.70;34.38
49915;BME280;35806;47.958;13.158;2023-06-14T08:57:54;94433.25;;;20.77;33.28
49915;BME280;35806;47.958;13.158;2023-06-14T09:00:23;94430.48;;;19.87;34.65
49915;BME280;35806;47.958;13.158;2023-06-14T09:02:50;94431.92;;;20.87;33.91
49915;BME280;35806;47.958;13.158;2023-06-14T09:05:18;94433.50;;;21.45;33.03
49915;BME280;35806;47.958;13.158;2023-06-14T09:07:46;94437.08;;;22.52;31.53
49915;BME280;35806;47.958;13.158;2023-06-14T09:10:15;94436.72;;;21.71;31.98
49915;BME280;35806;47.958;13.158;2023-06-14T09:12:43;94437.72;;;21.26;33.75
49915;BME280;35806;47.958;13.158;2023-06-14T09:15:11;94437.76;;;21.87;32.02
49915;BME280;35806;47.958;13.158;2023-06-14T09:18:01;94436.98;;;22.44;31.27
49915;BME280;35806;47.958;13.158;2023-06-14T09:20:48;94438.41;;;20.33;33.53
49915;BME280;35806;47.958;13.158;2023-06-14T09:23:20;94442.01;;;20.59;32.53
49915;BME280;35806;47.958;13.158;2023-06-14T09:25:48;94443.63;;;19.74;34.19
49915;BME280;35806;47.958;13.158;2023-06-14T09:28:16;94443.10;;;20.00;33.95
49915;BME280;35806;47.958;13.158;2023-06-14T09:30:43;94441.71;;;20.99;33.40
49915;BME280;35806;47.958;13.158;2023-06-14T09:33:17;94446.97;;;22.00;31.36
49915;BME280;35806;47.958;13.158;2023-06-14T09:35:46;94444.20;;;21.34;32.02
49915;BME280;35806;47.958;13.158;2023-06-14T09:38:13;94445.92;;;20.86;31.58
49915;BME280;35806;47.958;13.158;2023-06-14T09:40:41;94448.04;;;21.84;31.84
49915;BME280;35806;47.958;13.158;2023-06-14T09:43:10;94448.94;;;20.82;32.61
49915;BME280;35806;47.958;13.158;2023-06-14T09:45:39;94451.95;;;21.34;31.38
49915;BME280;35806;47.958;13.158;2023-06-14T09:48:07;94450.98;;;21.48;32.88
49915;BME280;35806;47.958;13.158;2023-06-14T09:50:35;94446.85;;;20.38;33.35
49915;BME280;35806;47.958;13.158;2023-06-14T09:53:07;94444.53;;;21.75;31.15
49915;BME280;35806;47.958;13.158;2023-06-14T09:55:36;94445.10;;;21.19;31.29
49915;BME280;35806;47.958;13.158;2023-06-14T09:58:06;94447.50;;;20.87;28.27
49915;BME280;35806;47.958;13.158;2023-06-14T10:00:36;94446.73;;;21.21;30.39
49915;BME280;35806;47.958;13.158;2023-06-14T10:03:11;94448.18;;;21.11;30.17
49915;BME280;35806;47.958;13.158;2023-06-14T10:06:08;94450.59;;;22.06;30.10
49915;BME280;35806;47.958;13.158;2023-06-14T10:08:36;94447.35;;;22.00;29.39
49915;BME280;35806;47.958;13.158;2023-06-14T10:11:05;94447.82;;;22.94;30.36
49915;BME280;35806;47.958;13.158;2023-06-14T10:13:33;94447.53;;;22.27;29.10
49915;BME280;35806;47.958;13.158;2023-06-14T10:16:12;94446.64;;;22.44;29.93
49915;BME280;35806;47.958;13.158;2023-06-14T10:18:48;94447.41;;;23.45;30.06
49915;BME280;35806;47.958;13.158;2023-06-14T10:21:22;94444.85;;;20.62;32.53
49915;BME280;35806;47.958;13.158;2023-06-14T10:23:53;94446.90;;;22.48;27.42
49915;BME280;35806;47.958;13.158;2023-06-14T10:26:21;94447.26;;;22.74;28.13
49915;BME280;35806;47.958;13.158;2023-06-14T10:28:59;94444.25;;;22.93;27.56
49915;BME280;35806;47.958;13.158;2023-06-14T10:31:44;94439.42;;;22.41;28.40
49915;BME280;35806;47.958;13.158;2023-06-14T10:34:12;94431.85;;;21.99;27.08
49915;BME280;35806;47.958;13.158;2023-06-14T10:37:00;94429.80;;;23.28;29.12
49915;BME280;35806;47.958;13.158;2023-06-14T10:39:32;94432.18;;;23.28;27.78
49915;BME280;35806;47.958;13.158;2023-06-14T10:42:02;94432.07;;;21.95;29.44
49915;BME280;35806;47.958;13.158;2023-06-14T10:44:47;94429.77;;;23.63;27.46
49915;BME280;35806;47.958;13.158;2023-06-14T10:47:27;94430.08;;;23.08;27.70
49915;BME280;35806;47.958;13.158;2023-06-14T10:49:57;94434.68;;;23.54;26.97
49915;BME280;35806;47.958;13.158;2023-06-14T10:52:31;94435.54;;;23.13;27.10
49915;BME280;35806;47.958;13.158;2023-06-14T10:55:01;94426.86;;;24.03;26.48
49915;BME280;35806;47.958;13.158;2023-06-14T10:57:29;94432.09;;;24.75;26.60
49915;BME280;35806;47.958;13.158;2023-06-14T10:59:56;94426.39;;;22.48;26.98
49915;BME280;35806;47.958;13.158;2023-06-14T11:03:45;94427.19;;;22.62;27.68
49915;BME280;35806;47.958;13.158;2023-06-14T11:06:22;94427.05;;;22.97;26.91
49915;BME280;35806;47.958;13.158;2023-06-14T11:09:20;94426.44;;;23.54;27.75
49915;BME280;35806;47.958;13.158;2023-06-14T11:11:54;94429.79;;;22.57;27.43
49915;BME280;35806;47.958;13.158;2023-06-14T11:14:29;94423.67;;;22.96;28.34
49915;BME280;35806;47.958;13.158;2023-06-14T11:17:11;94421.76;;;23.42;27.05
49915;BME280;35806;47.958;13.158;2023-06-14T11:19:39;94421.57;;;20.98;29.10
49915;BME280;35806;47.958;13.158;2023-06-14T11:22:07;94421.14;;;21.99;28.52
49915;BME280;35806;47.958;13.158;2023-06-14T11:24:35;94422.18;;;22.85;27.98
49915;BME280;35806;47.958;13.158;2023-06-14T11:27:05;94422.85;;;23.41;27.10
49915;BME280;35806;47.958;13.158;2023-06-14T11:29:34;94418.87;;;24.27;27.24
49915;BME280;35806;47.958;13.158;2023-06-14T11:32:01;94421.79;;;24.17;26.43
49915;BME280;35806;47.958;13.158;2023-06-14T11:34:29;94423.31;;;24.05;27.36
49915;BME280;35806;47.958;13.158;2023-06-14T11:36:56;94425.16;;;24.37;26.47
49915;BME280;35806;47.958;13.158;2023-06-14T11:39:24;94423.06;;;24.28;25.94
49915;BME280;35806;47.958;13.158;2023-06-14T11:41:52;94424.51;;;24.32;24.96
49915;BME280;35806;47.958;13.158;2023-06-14T11:44:19;94423.15;;;24.26;25.64
49915;BME280;35806;47.958;13.158;2023-06-14T11:46:46;94421.82;;;23.71;25.47
49915;BME280;35806;47.958;13.158;2023-06-14T11:49:14;94415.63;;;24.43;24.54
49915;BME280;35806;47.958;13.158;2023-06-14T11:51:43;94414.56;;;25.09;23.67
49915;BME280;35806;47.958;13.158;2023-06-14T11:54:11;94415.36;;;22.69;25.23
49915;BME280;35806;47.958;13.158;2023-06-14T11:56:39;94411.72;;;24.60;26.24
49915;BME280;35806;47.958;13.158;2023-06-14T11:59:06;94413.82;;;21.04;29.83
49915;BME280;35806;47.958;13.158;2023-06-14T12:01:36;94412.27;;;22.45;28.23
49915;BME280;35806;47.958;13.158;2023-06-14T12:04:04;94413.35;;;22.03;28.78
49915;BME280;35806;47.958;13.158;2023-06-14T12:06:32;94411.06;;;23.17;28.09
49915;BME280;35806;47.958;13.158;2023-06-14T12:09:00;94405.52;;;24.38;27.23
49915;BME280;35806;47.958;13.158;2023-06-14T12:11:40;94416.84;;;22.74;27.01
49915;BME280;35806;47.958;13.158;2023-06-14T12:14:08;94413.23;;;23.65;26.04
49915;BME280;35806;47.958;13.158;2023-06-14T12:16:37;94412.70;;;23.73;26.46
49915;BME280;35806;47.958;13.158;2023-06-14T12:19:12;94413.92;;;23.85;26.64
49915;BME280;35806;47.958;13.158;2023-06-14T12:21:40;94411.64;;;23.84;25.49
49915;BME280;35806;47.958;13.158;2023-06-14T12:24:09;94408.92;;;23.74;25.85
49915;BME280;35806;47.958;13.158;2023-06-14T12:26:38;94408.68;;;24.01;26.15
49915;BME280;35806;47.958;13.158;2023-06-14T12:29:07;94404.05;;;23.15;27.60
49915;BME280;35806;47.958;13.158;2023-06-14T12:31:34;94402.65;;;24.48;25.48
49915;BME280;35806;47.958;13.158;2023-06-14T12:34:01;94406.02;;;23.83;25.30
49915;BME280;35806;47.958;13.158;2023-06-14T12:36:28;94404.59;;;24.19;23.90
49915;BME280;35806;47.958;13.158;2023-06-14T12:38:56;94404.88;;;24.58;24.36
49915;BME280;35806;47.958;13.158;2023-06-14T12:41:24;94405.30;;;24.11;24.70
49915;BME280;35806;47.958;13.158;2023-06-14T12:44:02;94404.21;;;24.15;24.39
49915;BME280;35806;47.958;13.158;2023-06-14T12:46:30;94407.60;;;23.82;25.42
49915;BME280;35806;47.958;13.158;2023-06-14T12:48:58;94403.05;;;24.49;24.00
49915;BME280;35806;47.958;13.158;2023-06-14T12:51:25;94405.36;;;21.99;26.63
49915;BME280;35806;47.958;13.158;2023-06-14T12:53:52;94401.72;;;24.13;25.67
49915;BME280;35806;47.958;13.158;2023-06-14T12:56:20;94399.93;;;23.56;25.29
49915;BME280;35806;47.958;13.158;2023-06-14T12:58:48;94402.85;;;23.91;26.79
49915;BME280;35806;47.958;13.158;2023-06-14T13:01:15;94406.60;;;24.32;25.70
49915;BME280;35806;47.958;13.158;2023-06-14T13:03:42;94403.26;;;24.91;25.80
49915;BME280;35806;47.958;13.158;2023-06-14T13:06:10;94405.29;;;23.04;25.84
49915;BME280;35806;47.958;13.158;2023-06-14T13:08:37;94410.11;;;23.17;25.76
49915;BME280;35806;47.958;13.158;2023-06-14T13:11:05;94404.30;;;23.51;25.87
49915;BME280;35806;47.958;13.158;2023-06-14T13:13:33;94408.02;;;24.41;24.72
49915;BME280;35806;47.958;13.158;2023-06-14T13:16:00;94402.39;;;24.56;26.25